Stanley, Kansas
Current Conditions -  °F | °C
As of 11:54 AM on Thursday 30 Oct 2014 (Local Time) from KMKC Reporting Station
Clear Clear  
Wind Chill: 64°   Ceiling: Unl
Heat Index: 64°   Visibility: 10mi
Dew Point: 41°   Wind: 10mph
Humidity: 43%   Direction: 300°WNW
Pressure: 30.01"   Gusts: NA
Location:  39.0186°N, 94.6662°W
Report Text: KMKC 301654Z 30009KT 10SM CLR 18/05 A3001 RMK AO2 SLP160 T01780050
Loading
Personal Weather Stations






























Interactive Weather Map
Tropical Storm Tracking
New forecast layout! Learn more

10-Day Weather Forecast

Advertisements
Track Severe Weather on mobile